sensor_id;sensor_type;location;lat;lon;timestamp;P1;durP1;ratioP1;P2;durP2;ratioP2
20344;SDS011;10330;48.816;9.278;2023-12-14T00:41:38;4.03;;;1.42;;
20344;SDS011;10330;48.816;9.278;2023-12-14T00:44:04;1.75;;;1.65;;
20344;SDS011;10330;48.816;9.278;2023-12-14T00:46:30;2.25;;;1.60;;
20344;SDS011;10330;48.816;9.278;2023-12-14T00:48:56;1.70;;;1.60;;
20344;SDS011;10330;48.816;9.278;2023-12-14T00:51:23;2.40;;;1.80;;
20344;SDS011;10330;48.816;9.278;2023-12-14T00:53:49;3.15;;;1.40;;
20344;SDS011;10330;48.816;9.278;2023-12-14T00:56:15;1.90;;;1.60;;
20344;SDS011;10330;48.816;9.278;2023-12-14T00:58:41;1.70;;;1.60;;
20344;SDS011;10330;48.816;9.278;2023-12-14T01:01:07;2.78;;;1.90;;
20344;SDS011;10330;48.816;9.278;2023-12-14T01:03:34;4.97;;;1.95;;
20344;SDS011;10330;48.816;9.278;2023-12-14T01:06:00;2.47;;;1.80;;
20344;SDS011;10330;48.816;9.278;2023-12-14T01:08:26;1.88;;;1.80;;
20344;SDS011;10330;48.816;9.278;2023-12-14T01:10:52;3.00;;;1.80;;
20344;SDS011;10330;48.816;9.278;2023-12-14T01:13:18;1.50;;;1.40;;
20344;SDS011;10330;48.816;9.278;2023-12-14T01:15:44;1.65;;;1.55;;
20344;SDS011;10330;48.816;9.278;2023-12-14T01:18:13;1.63;;;1.55;;
20344;SDS011;10330;48.816;9.278;2023-12-14T01:20:40;1.50;;;1.40;;
20344;SDS011;10330;48.816;9.278;2023-12-14T01:23:07;1.63;;;1.40;;
20344;SDS011;10330;48.816;9.278;2023-12-14T01:25:35;2.95;;;1.45;;
20344;SDS011;10330;48.816;9.278;2023-12-14T01:28:02;1.83;;;1.73;;
20344;SDS011;10330;48.816;9.278;2023-12-14T01:30:28;1.83;;;1.67;;
20344;SDS011;10330;48.816;9.278;2023-12-14T01:32:54;1.50;;;1.40;;
20344;SDS011;10330;48.816;9.278;2023-12-14T01:35:20;2.78;;;1.52;;
20344;SDS011;10330;48.816;9.278;2023-12-14T01:37:46;2.83;;;1.73;;
20344;SDS011;10330;48.816;9.278;2023-12-14T01:40:12;2.53;;;1.52;;
20344;SDS011;10330;48.816;9.278;2023-12-14T01:42:39;1.63;;;1.52;;
20344;SDS011;10330;48.816;9.278;2023-12-14T01:45:05;3.55;;;1.60;;
20344;SDS011;10330;48.816;9.278;2023-12-14T01:47:32;1.60;;;1.50;;
20344;SDS011;10330;48.816;9.278;2023-12-14T01:49:58;1.52;;;1.42;;
20344;SDS011;10330;48.816;9.278;2023-12-14T01:52:24;3.35;;;1.70;;
20344;SDS011;10330;48.816;9.278;2023-12-14T01:54:50;1.63;;;1.52;;
20344;SDS011;10330;48.816;9.278;2023-12-14T01:57:16;1.40;;;1.30;;
20344;SDS011;10330;48.816;9.278;2023-12-14T01:59:43;4.38;;;1.90;;
20344;SDS011;10330;48.816;9.278;2023-12-14T02:02:09;1.80;;;1.60;;
20344;SDS011;10330;48.816;9.278;2023-12-14T02:04:35;1.63;;;1.55;;
20344;SDS011;10330;48.816;9.278;2023-12-14T02:07:03;1.75;;;1.45;;
20344;SDS011;10330;48.816;9.278;2023-12-14T02:09:29;1.83;;;1.58;;
20344;SDS011;10330;48.816;9.278;2023-12-14T02:11:55;1.55;;;1.45;;
20344;SDS011;10330;48.816;9.278;2023-12-14T02:14:22;1.85;;;1.75;;
20344;SDS011;10330;48.816;9.278;2023-12-14T02:16:49;2.45;;;1.85;;
20344;SDS011;10330;48.816;9.278;2023-12-14T02:19:15;1.73;;;1.63;;
20344;SDS011;10330;48.816;9.278;2023-12-14T02:21:42;1.80;;;1.70;;
20344;SDS011;10330;48.816;9.278;2023-12-14T02:24:08;4.97;;;2.33;;
20344;SDS011;10330;48.816;9.278;2023-12-14T02:26:34;2.10;;;1.65;;
20344;SDS011;10330;48.816;9.278;2023-12-14T02:29:00;1.88;;;1.77;;
20344;SDS011;10330;48.816;9.278;2023-12-14T02:31:27;2.33;;;2.13;;
20344;SDS011;10330;48.816;9.278;2023-12-14T02:33:53;5.43;;;1.95;;
20344;SDS011;10330;48.816;9.278;2023-12-14T02:36:19;6.22;;;1.88;;
20344;SDS011;10330;48.816;9.278;2023-12-14T02:38:45;2.38;;;2.17;;
20344;SDS011;10330;48.816;9.278;2023-12-14T02:41:11;1.98;;;1.50;;
20344;SDS011;10330;48.816;9.278;2023-12-14T02:43:38;1.83;;;1.70;;
20344;SDS011;10330;48.816;9.278;2023-12-14T02:46:06;2.70;;;2.17;;
20344;SDS011;10330;48.816;9.278;2023-12-14T02:48:32;3.42;;;1.88;;
20344;SDS011;10330;48.816;9.278;2023-12-14T02:51:02;9.20;;;2.38;;
20344;SDS011;10330;48.816;9.278;2023-12-14T02:53:31;2.65;;;2.08;;
20344;SDS011;10330;48.816;9.278;2023-12-14T02:56:00;2.47;;;2.28;;
20344;SDS011;10330;48.816;9.278;2023-12-14T02:58:27;2.72;;;2.35;;
20344;SDS011;10330;48.816;9.278;2023-12-14T03:00:53;2.30;;;2.10;;
20344;SDS011;10330;48.816;9.278;2023-12-14T03:03:20;2.47;;;2.00;;
20344;SDS011;10330;48.816;9.278;2023-12-14T03:05:46;3.70;;;2.13;;
20344;SDS011;10330;48.816;9.278;2023-12-14T03:08:12;4.85;;;1.88;;
20344;SDS011;10330;48.816;9.278;2023-12-14T03:10:38;3.70;;;1.88;;
20344;SDS011;10330;48.816;9.278;2023-12-14T03:13:04;2.50;;;2.00;;
20344;SDS011;10330;48.816;9.278;2023-12-14T03:15:30;1.67;;;1.60;;
20344;SDS011;10330;48.816;9.278;2023-12-14T03:17:57;12.70;;;2.10;;
20344;SDS011;10330;48.816;9.278;2023-12-14T03:20:26;3.13;;;1.60;;
20344;SDS011;10330;48.816;9.278;2023-12-14T03:22:52;1.85;;;1.77;;
20344;SDS011;10330;48.816;9.278;2023-12-14T03:25:18;4.13;;;1.92;;
20344;SDS011;10330;48.816;9.278;2023-12-14T03:27:45;6.15;;;1.98;;
20344;SDS011;10330;48.816;9.278;2023-12-14T03:30:11;2.45;;;1.80;;
20344;SDS011;10330;48.816;9.278;2023-12-14T03:32:38;2.08;;;1.80;;
20344;SDS011;10330;48.816;9.278;2023-12-14T03:35:07;4.00;;;1.85;;
20344;SDS011;10330;48.816;9.278;2023-12-14T03:37:34;2.08;;;1.98;;
20344;SDS011;10330;48.816;9.278;2023-12-14T03:40:01;1.65;;;1.55;;
20344;SDS011;10330;48.816;9.278;2023-12-14T03:42:27;2.28;;;2.10;;
20344;SDS011;10330;48.816;9.278;2023-12-14T03:44:54;7.47;;;2.08;;
20344;SDS011;10330;48.816;9.278;2023-12-14T03:47:20;2.00;;;1.38;;
20344;SDS011;10330;48.816;9.278;2023-12-14T03:49:47;1.73;;;1.63;;
20344;SDS011;10330;48.816;9.278;2023-12-14T03:52:14;1.80;;;1.70;;
20344;SDS011;10330;48.816;9.278;2023-12-14T03:54:41;7.20;;;1.90;;
20344;SDS011;10330;48.816;9.278;2023-12-14T03:57:07;2.10;;;1.95;;
20344;SDS011;10330;48.816;9.278;2023-12-14T03:59:33;2.65;;;1.70;;
20344;SDS011;10330;48.816;9.278;2023-12-14T04:01:59;1.85;;;1.70;;
20344;SDS011;10330;48.816;9.278;2023-12-14T04:04:25;2.13;;;2.03;;
20344;SDS011;10330;48.816;9.278;2023-12-14T04:06:52;1.77;;;1.67;;
20344;SDS011;10330;48.816;9.278;2023-12-14T04:09:18;2.92;;;1.73;;
20344;SDS011;10330;48.816;9.278;2023-12-14T04:11:44;2.00;;;1.70;;
20344;SDS011;10330;48.816;9.278;2023-12-14T04:14:11;3.53;;;1.83;;
20344;SDS011;10330;48.816;9.278;2023-12-14T04:16:37;2.35;;;2.05;;
20344;SDS011;10330;48.816;9.278;2023-12-14T04:19:03;2.25;;;2.05;;
20344;SDS011;10330;48.816;9.278;2023-12-14T04:21:36;6.85;;;2.85;;
20344;SDS011;10330;48.816;9.278;2023-12-14T04:24:02;5.22;;;2.33;;
20344;SDS011;10330;48.816;9.278;2023-12-14T04:26:32;6.15;;;2.45;;
20344;SDS011;10330;48.816;9.278;2023-12-14T04:28:58;5.07;;;2.53;;
20344;SDS011;10330;48.816;9.278;2023-12-14T04:31:24;2.58;;;2.38;;
20344;SDS011;10330;48.816;9.278;2023-12-14T04:33:50;4.68;;;2.70;;
20344;SDS011;10330;48.816;9.278;2023-12-14T04:36:16;3.60;;;2.67;;
20344;SDS011;10330;48.816;9.278;2023-12-14T04:38:43;3.03;;;2.30;;
20344;SDS011;10330;48.816;9.278;2023-12-14T04:41:12;4.82;;;2.67;;
20344;SDS011;10330;48.816;9.278;2023-12-14T04:43:38;4.30;;;2.60;;
20344;SDS011;10330;48.816;9.278;2023-12-14T04:46:04;3.47;;;2.50;;
20344;SDS011;10330;48.816;9.278;2023-12-14T04:48:39;2.95;;;2.55;;
20344;SDS011;10330;48.816;9.278;2023-12-14T04:51:05;6.00;;;3.10;;
20344;SDS011;10330;48.816;9.278;2023-12-14T04:53:36;2.75;;;2.55;;
20344;SDS011;10330;48.816;9.278;2023-12-14T04:56:02;4.03;;;2.92;;
20344;SDS011;10330;48.816;9.278;2023-12-14T04:58:28;8.10;;;2.95;;
20344;SDS011;10330;48.816;9.278;2023-12-14T05:00:55;5.60;;;2.70;;
20344;SDS011;10330;48.816;9.278;2023-12-14T05:03:21;6.20;;;3.45;;
20344;SDS011;10330;48.816;9.278;2023-12-14T05:05:47;4.72;;;3.20;;
20344;SDS011;10330;48.816;9.278;2023-12-14T05:08:13;3.70;;;3.33;;
20344;SDS011;10330;48.816;9.278;2023-12-14T05:10:39;3.03;;;2.72;;
20344;SDS011;10330;48.816;9.278;2023-12-14T05:13:05;4.45;;;3.85;;
20344;SDS011;10330;48.816;9.278;2023-12-14T05:15:32;6.75;;;3.90;;
20344;SDS011;10330;48.816;9.278;2023-12-14T05:17:59;4.90;;;3.47;;
20344;SDS011;10330;48.816;9.278;2023-12-14T05:20:25;3.90;;;3.40;;
20344;SDS011;10330;48.816;9.278;2023-12-14T05:22:51;4.85;;;3.22;;
20344;SDS011;10330;48.816;9.278;2023-12-14T05:25:17;3.10;;;2.85;;
20344;SDS011;10330;48.816;9.278;2023-12-14T05:27:44;4.65;;;3.10;;
20344;SDS011;10330;48.816;9.278;2023-12-14T05:30:10;4.22;;;3.47;;
20344;SDS011;10330;48.816;9.278;2023-12-14T05:32:36;10.25;;;3.47;;
20344;SDS011;10330;48.816;9.278;2023-12-14T05:35:02;5.90;;;3.50;;
20344;SDS011;10330;48.816;9.278;2023-12-14T05:37:29;4.43;;;3.25;;
20344;SDS011;10330;48.816;9.278;2023-12-14T05:39:55;12.93;;;4.28;;
20344;SDS011;10330;48.816;9.278;2023-12-14T05:42:21;4.22;;;3.80;;
20344;SDS011;10330;48.816;9.278;2023-12-14T05:44:48;4.90;;;3.70;;
20344;SDS011;10330;48.816;9.278;2023-12-14T05:47:14;5.32;;;3.50;;
20344;SDS011;10330;48.816;9.278;2023-12-14T05:49:41;9.25;;;3.53;;
20344;SDS011;10330;48.816;9.278;2023-12-14T05:52:08;10.85;;;4.35;;
20344;SDS011;10330;48.816;9.278;2023-12-14T05:54:37;3.72;;;3.40;;
20344;SDS011;10330;48.816;9.278;2023-12-14T05:57:05;5.75;;;3.55;;
20344;SDS011;10330;48.816;9.278;2023-12-14T05:59:31;9.30;;;4.20;;
20344;SDS011;10330;48.816;9.278;2023-12-14T06:01:58;12.35;;;4.13;;
20344;SDS011;10330;48.816;9.278;2023-12-14T06:04:25;7.00;;;4.28;;
20344;SDS011;10330;48.816;9.278;2023-12-14T06:06:52;9.30;;;4.03;;
20344;SDS011;10330;48.816;9.278;2023-12-14T06:09:19;7.32;;;4.45;;
20344;SDS011;10330;48.816;9.278;2023-12-14T06:11:50;5.47;;;4.00;;
20344;SDS011;10330;48.816;9.278;2023-12-14T06:14:17;8.40;;;3.78;;
20344;SDS011;10330;48.816;9.278;2023-12-14T06:16:43;13.98;;;6.13;;
20344;SDS011;10330;48.816;9.278;2023-12-14T06:19:09;7.88;;;5.18;;
20344;SDS011;10330;48.816;9.278;2023-12-14T06:21:35;16.83;;;7.72;;
20344;SDS011;10330;48.816;9.278;2023-12-14T06:24:04;14.73;;;6.90;;
20344;SDS011;10330;48.816;9.278;2023-12-14T06:26:31;22.70;;;6.53;;
20344;SDS011;10330;48.816;9.278;2023-12-14T06:28:57;10.75;;;5.25;;
20344;SDS011;10330;48.816;9.278;2023-12-14T06:31:23;8.95;;;4.80;;
20344;SDS011;10330;48.816;9.278;2023-12-14T06:33:50;5.72;;;4.35;;
20344;SDS011;10330;48.816;9.278;2023-12-14T06:36:16;11.48;;;5.72;;
20344;SDS011;10330;48.816;9.278;2023-12-14T06:38:43;10.98;;;5.68;;
20344;SDS011;10330;48.816;9.278;2023-12-14T06:41:20;5.85;;;4.55;;
20344;SDS011;10330;48.816;9.278;2023-12-14T08:41:24;13.45;;;6.05;;
20344;SDS011;10330;48.816;9.278;2023-12-14T09:33:17;11.40;;;7.50;;
20344;SDS011;10330;48.816;9.278;2023-12-14T09:36:58;10.15;;;6.38;;
20344;SDS011;10330;48.816;9.278;2023-12-14T09:53:06;13.95;;;7.75;;
20344;SDS011;10330;48.816;9.278;2023-12-14T09:56:14;12.07;;;7.75;;
20344;SDS011;10330;48.816;9.278;2023-12-14T10:02:10;15.32;;;7.53;;
20344;SDS011;10330;48.816;9.278;2023-12-14T10:04:57;11.57;;;7.40;;
20344;SDS011;10330;48.816;9.278;2023-12-14T10:07:30;13.85;;;8.25;;
20344;SDS011;10330;48.816;9.278;2023-12-14T10:10:43;9.65;;;6.47;;
20344;SDS011;10330;48.816;9.278;2023-12-14T10:13:47;10.80;;;7.63;;
20344;SDS011;10330;48.816;9.278;2023-12-14T10:31:58;12.65;;;7.18;;
20344;SDS011;10330;48.816;9.278;2023-12-14T10:38:52;8.80;;;6.80;;
20344;SDS011;10330;48.816;9.278;2023-12-14T11:44:22;8.70;;;5.40;;
20344;SDS011;10330;48.816;9.278;2023-12-14T11:47:22;12.60;;;6.03;;
20344;SDS011;10330;48.816;9.278;2023-12-14T11:49:51;8.18;;;6.28;;
20344;SDS011;10330;48.816;9.278;2023-12-14T11:52:18;8.02;;;5.68;;
20344;SDS011;10330;48.816;9.278;2023-12-14T12:03:17;9.55;;;5.68;;
20344;SDS011;10330;48.816;9.278;2023-12-14T12:05:49;9.85;;;6.00;;
20344;SDS011;10330;48.816;9.278;2023-12-14T12:08:18;12.60;;;6.30;;
20344;SDS011;10330;48.816;9.278;2023-12-14T12:10:46;14.07;;;6.45;;
20344;SDS011;10330;48.816;9.278;2023-12-14T12:13:17;11.35;;;5.85;;
20344;SDS011;10330;48.816;9.278;2023-12-14T12:15:44;13.60;;;5.78;;
20344;SDS011;10330;48.816;9.278;2023-12-14T12:18:14;10.55;;;5.70;;
20344;SDS011;10330;48.816;9.278;2023-12-14T12:27:18;4.45;;;3.88;;
20344;SDS011;10330;48.816;9.278;2023-12-14T12:29:46;4.88;;;4.20;;
20344;SDS011;10330;48.816;9.278;2023-12-14T12:36:04;4.53;;;3.85;;
20344;SDS011;10330;48.816;9.278;2023-12-14T12:38:36;4.10;;;3.70;;
20344;SDS011;10330;48.816;9.278;2023-12-14T12:41:46;8.05;;;3.35;;
20344;SDS011;10330;48.816;9.278;2023-12-14T12:44:18;3.15;;;2.88;;
20344;SDS011;10330;48.816;9.278;2023-12-14T12:46:44;9.32;;;3.15;;
20344;SDS011;10330;48.816;9.278;2023-12-14T12:59:02;5.32;;;2.80;;
20344;SDS011;10330;48.816;9.278;2023-12-14T13:01:40;3.53;;;3.17;;
20344;SDS011;10330;48.816;9.278;2023-12-14T13:04:33;4.65;;;3.42;;
20344;SDS011;10330;48.816;9.278;2023-12-14T13:10:36;11.30;;;3.95;;
20344;SDS011;10330;48.816;9.278;2023-12-14T13:13:50;5.78;;;3.45;;
20344;SDS011;10330;48.816;9.278;2023-12-14T13:22:16;9.27;;;4.70;;
20344;SDS011;10330;48.816;9.278;2023-12-14T13:24:45;6.20;;;3.88;;
20344;SDS011;10330;48.816;9.278;2023-12-14T13:27:12;3.15;;;2.65;;
20344;SDS011;10330;48.816;9.278;2023-12-14T13:29:38;6.00;;;3.28;;
20344;SDS011;10330;48.816;9.278;2023-12-14T13:48:03;6.95;;;2.60;;
20344;SDS011;10330;48.816;9.278;2023-12-14T13:50:41;4.88;;;3.05;;
20344;SDS011;10330;48.816;9.278;2023-12-14T13:54:06;2.78;;;2.58;;
20344;SDS011;10330;48.816;9.278;2023-12-14T14:00:37;6.93;;;3.78;;
20344;SDS011;10330;48.816;9.278;2023-12-14T14:03:06;5.10;;;3.10;;
20344;SDS011;10330;48.816;9.278;2023-12-14T14:05:36;4.13;;;2.88;;
20344;SDS011;10330;48.816;9.278;2023-12-14T14:14:48;3.05;;;2.75;;
20344;SDS011;10330;48.816;9.278;2023-12-14T14:17:15;4.47;;;3.28;;
20344;SDS011;10330;48.816;9.278;2023-12-14T14:22:48;7.38;;;3.30;;
20344;SDS011;10330;48.816;9.278;2023-12-14T14:44:09;11.65;;;5.97;;
20344;SDS011;10330;48.816;9.278;2023-12-14T14:46:39;9.32;;;6.05;;
20344;SDS011;10330;48.816;9.278;2023-12-14T14:49:11;7.65;;;5.70;;
20344;SDS011;10330;48.816;9.278;2023-12-14T15:19:37;18.23;;;8.27;;
20344;SDS011;10330;48.816;9.278;2023-12-14T15:22:04;13.52;;;8.23;;
20344;SDS011;10330;48.816;9.278;2023-12-14T15:24:40;16.55;;;8.00;;
20344;SDS011;10330;48.816;9.278;2023-12-14T15:27:07;13.65;;;8.73;;
20344;SDS011;10330;48.816;9.278;2023-12-14T15:32:49;18.25;;;8.60;;
20344;SDS011;10330;48.816;9.278;2023-12-14T15:35:18;14.93;;;9.02;;
20344;SDS011;10330;48.816;9.278;2023-12-14T15:52:30;19.35;;;10.48;;
20344;SDS011;10330;48.816;9.278;2023-12-14T15:58:17;21.55;;;9.55;;
20344;SDS011;10330;48.816;9.278;2023-12-14T16:04:35;18.95;;;9.88;;
20344;SDS011;10330;48.816;9.278;2023-12-14T16:20:12;23.23;;;10.38;;
20344;SDS011;10330;48.816;9.278;2023-12-14T16:23:19;21.55;;;11.52;;
20344;SDS011;10330;48.816;9.278;2023-12-14T17:13:38;15.55;;;7.38;;
20344;SDS011;10330;48.816;9.278;2023-12-14T17:44:12;11.98;;;6.60;;
20344;SDS011;10330;48.816;9.278;2023-12-14T17:46:38;15.50;;;7.53;;
20344;SDS011;10330;48.816;9.278;2023-12-14T17:49:08;12.00;;;6.78;;
20344;SDS011;10330;48.816;9.278;2023-12-14T17:51:39;17.55;;;8.13;;
20344;SDS011;10330;48.816;9.278;2023-12-14T17:54:12;15.93;;;8.00;;
20344;SDS011;10330;48.816;9.278;2023-12-14T17:56:41;14.55;;;8.07;;
20344;SDS011;10330;48.816;9.278;2023-12-14T17:59:08;16.15;;;7.95;;
20344;SDS011;10330;48.816;9.278;2023-12-14T18:01:41;18.05;;;10.15;;
20344;SDS011;10330;48.816;9.278;2023-12-14T18:04:30;18.42;;;9.80;;
20344;SDS011;10330;48.816;9.278;2023-12-14T18:07:00;15.95;;;8.95;;
20344;SDS011;10330;48.816;9.278;2023-12-14T18:09:35;23.42;;;9.80;;
20344;SDS011;10330;48.816;9.278;2023-12-14T18:12:06;18.20;;;9.55;;
20344;SDS011;10330;48.816;9.278;2023-12-14T18:14:46;11.70;;;7.15;;
20344;SDS011;10330;48.816;9.278;2023-12-14T18:17:16;17.13;;;8.05;;
20344;SDS011;10330;48.816;9.278;2023-12-14T18:19:45;21.50;;;9.90;;
20344;SDS011;10330;48.816;9.278;2023-12-14T18:22:17;20.45;;;8.77;;
20344;SDS011;10330;48.816;9.278;2023-12-14T18:24:43;26.00;;;12.25;;
20344;SDS011;10330;48.816;9.278;2023-12-14T18:27:14;23.52;;;10.30;;
20344;SDS011;10330;48.816;9.278;2023-12-14T18:29:46;19.50;;;10.30;;
20344;SDS011;10330;48.816;9.278;2023-12-14T18:32:43;18.67;;;9.65;;
20344;SDS011;10330;48.816;9.278;2023-12-14T18:35:15;20.33;;;10.38;;
20344;SDS011;10330;48.816;9.278;2023-12-14T18:37:42;20.58;;;11.35;;
20344;SDS011;10330;48.816;9.278;2023-12-14T18:40:11;20.95;;;10.85;;
20344;SDS011;10330;48.816;9.278;2023-12-14T18:42:41;20.50;;;10.52;;
20344;SDS011;10330;48.816;9.278;2023-12-14T18:45:17;16.10;;;9.32;;
20344;SDS011;10330;48.816;9.278;2023-12-14T18:47:44;18.33;;;8.85;;
20344;SDS011;10330;48.816;9.278;2023-12-14T18:50:17;20.17;;;9.93;;
20344;SDS011;10330;48.816;9.278;2023-12-14T18:52:46;23.23;;;9.88;;
20344;SDS011;10330;48.816;9.278;2023-12-14T18:55:15;24.63;;;11.23;;
20344;SDS011;10330;48.816;9.278;2023-12-14T18:57:42;17.65;;;9.07;;
20344;SDS011;10330;48.816;9.278;2023-12-14T19:00:14;21.40;;;8.60;;
20344;SDS011;10330;48.816;9.278;2023-12-14T19:02:43;20.30;;;8.77;;
20344;SDS011;10330;48.816;9.278;2023-12-14T19:07:58;14.55;;;7.45;;
20344;SDS011;10330;48.816;9.278;2023-12-14T19:10:42;17.33;;;8.85;;
20344;SDS011;10330;48.816;9.278;2023-12-14T19:13:12;12.20;;;6.82;;
20344;SDS011;10330;48.816;9.278;2023-12-14T19:15:44;14.93;;;6.75;;
20344;SDS011;10330;48.816;9.278;2023-12-14T19:18:14;12.65;;;6.47;;
20344;SDS011;10330;48.816;9.278;2023-12-14T19:20:43;18.23;;;7.85;;
20344;SDS011;10330;48.816;9.278;2023-12-14T19:23:18;15.05;;;8.00;;
20344;SDS011;10330;48.816;9.278;2023-12-14T19:25:50;18.92;;;8.95;;
20344;SDS011;10330;48.816;9.278;2023-12-14T19:28:20;21.63;;;7.97;;
20344;SDS011;10330;48.816;9.278;2023-12-14T19:30:46;17.65;;;9.32;;
20344;SDS011;10330;48.816;9.278;2023-12-14T19:33:27;16.73;;;8.57;;
20344;SDS011;10330;48.816;9.278;2023-12-14T19:35:53;25.55;;;9.77;;
20344;SDS011;10330;48.816;9.278;2023-12-14T19:38:23;18.92;;;9.02;;
20344;SDS011;10330;48.816;9.278;2023-12-14T19:40:49;14.80;;;8.07;;
20344;SDS011;10330;48.816;9.278;2023-12-14T19:43:19;16.75;;;8.25;;
20344;SDS011;10330;48.816;9.278;2023-12-14T19:45:48;15.95;;;7.95;;
20344;SDS011;10330;48.816;9.278;2023-12-14T19:48:14;16.83;;;8.25;;
20344;SDS011;10330;48.816;9.278;2023-12-14T19:50:43;16.65;;;7.72;;
20344;SDS011;10330;48.816;9.278;2023-12-14T19:53:12;15.63;;;7.72;;
20344;SDS011;10330;48.816;9.278;2023-12-14T19:55:39;14.82;;;8.75;;
20344;SDS011;10330;48.816;9.278;2023-12-14T19:58:22;21.23;;;9.45;;
20344;SDS011;10330;48.816;9.278;2023-12-14T20:00:51;18.40;;;8.45;;
20344;SDS011;10330;48.816;9.278;2023-12-14T20:03:18;18.58;;;8.80;;
20344;SDS011;10330;48.816;9.278;2023-12-14T20:05:44;21.15;;;9.27;;
20344;SDS011;10330;48.816;9.278;2023-12-14T20:08:12;14.15;;;6.82;;
20344;SDS011;10330;48.816;9.278;2023-12-14T20:10:39;16.13;;;7.32;;
20344;SDS011;10330;48.816;9.278;2023-12-14T20:13:14;12.82;;;7.10;;
20344;SDS011;10330;48.816;9.278;2023-12-14T20:15:41;14.43;;;6.85;;
20344;SDS011;10330;48.816;9.278;2023-12-14T20:18:11;18.90;;;7.35;;
20344;SDS011;10330;48.816;9.278;2023-12-14T20:20:37;15.10;;;7.10;;
20344;SDS011;10330;48.816;9.278;2023-12-14T20:23:06;14.27;;;7.10;;
20344;SDS011;10330;48.816;9.278;2023-12-14T20:25:40;19.77;;;10.00;;
20344;SDS011;10330;48.816;9.278;2023-12-14T20:28:07;12.32;;;6.45;;
20344;SDS011;10330;48.816;9.278;2023-12-14T20:30:37;11.10;;;5.70;;
20344;SDS011;10330;48.816;9.278;2023-12-14T20:33:10;10.15;;;5.65;;
20344;SDS011;10330;48.816;9.278;2023-12-14T20:35:36;9.70;;;6.07;;
20344;SDS011;10330;48.816;9.278;2023-12-14T20:38:03;11.07;;;6.28;;
20344;SDS011;10330;48.816;9.278;2023-12-14T20:40:33;9.63;;;5.45;;
20344;SDS011;10330;48.816;9.278;2023-12-14T20:43:07;8.68;;;5.47;;
20344;SDS011;10330;48.816;9.278;2023-12-14T20:45:34;12.48;;;5.53;;
20344;SDS011;10330;48.816;9.278;2023-12-14T20:48:01;8.38;;;5.72;;
20344;SDS011;10330;48.816;9.278;2023-12-14T20:50:35;12.48;;;6.28;;
20344;SDS011;10330;48.816;9.278;2023-12-14T20:53:01;13.63;;;7.20;;
20344;SDS011;10330;48.816;9.278;2023-12-14T20:55:33;7.82;;;4.70;;
20344;SDS011;10330;48.816;9.278;2023-12-14T20:58:01;6.65;;;4.90;;
20344;SDS011;10330;48.816;9.278;2023-12-14T21:00:36;7.75;;;4.72;;
20344;SDS011;10330;48.816;9.278;2023-12-14T21:03:02;5.57;;;3.88;;
20344;SDS011;10330;48.816;9.278;2023-12-14T21:05:29;10.68;;;5.35;;
20344;SDS011;10330;48.816;9.278;2023-12-14T21:07:55;6.78;;;4.30;;
20344;SDS011;10330;48.816;9.278;2023-12-14T21:10:22;5.32;;;3.55;;
20344;SDS011;10330;48.816;9.278;2023-12-14T21:12:48;6.20;;;4.20;;
20344;SDS011;10330;48.816;9.278;2023-12-14T21:15:15;6.82;;;4.68;;
20344;SDS011;10330;48.816;9.278;2023-12-14T21:17:41;6.47;;;4.22;;
20344;SDS011;10330;48.816;9.278;2023-12-14T21:20:07;7.50;;;5.03;;
20344;SDS011;10330;48.816;9.278;2023-12-14T21:22:34;9.93;;;4.85;;
20344;SDS011;10330;48.816;9.278;2023-12-14T21:25:01;6.30;;;4.20;;
20344;SDS011;10330;48.816;9.278;2023-12-14T21:27:30;5.25;;;3.63;;
20344;SDS011;10330;48.816;9.278;2023-12-14T21:30:16;7.07;;;3.90;;
20344;SDS011;10330;48.816;9.278;2023-12-14T21:32:45;10.63;;;5.05;;
20344;SDS011;10330;48.816;9.278;2023-12-14T21:35:12;8.10;;;4.93;;
20344;SDS011;10330;48.816;9.278;2023-12-14T21:37:41;6.78;;;4.80;;
20344;SDS011;10330;48.816;9.278;2023-12-14T21:40:08;14.68;;;5.05;;
20344;SDS011;10330;48.816;9.278;2023-12-14T21:42:35;11.63;;;4.90;;
20344;SDS011;10330;48.816;9.278;2023-12-14T21:45:01;7.57;;;5.20;;
20344;SDS011;10330;48.816;9.278;2023-12-14T21:47:29;15.05;;;6.70;;
20344;SDS011;10330;48.816;9.278;2023-12-14T21:49:55;10.38;;;5.35;;
20344;SDS011;10330;48.816;9.278;2023-12-14T21:52:22;8.48;;;4.93;;
20344;SDS011;10330;48.816;9.278;2023-12-14T21:54:49;10.70;;;5.55;;
20344;SDS011;10330;48.816;9.278;2023-12-14T21:57:15;10.57;;;5.95;;
20344;SDS011;10330;48.816;9.278;2023-12-14T21:59:42;9.95;;;4.90;;
20344;SDS011;10330;48.816;9.278;2023-12-14T22:02:08;9.48;;;5.55;;
20344;SDS011;10330;48.816;9.278;2023-12-14T22:04:35;10.07;;;5.28;;
20344;SDS011;10330;48.816;9.278;2023-12-14T22:07:02;11.88;;;5.45;;
20344;SDS011;10330;48.816;9.278;2023-12-14T22:09:28;7.75;;;4.55;;
20344;SDS011;10330;48.816;9.278;2023-12-14T22:11:55;9.63;;;5.63;;
20344;SDS011;10330;48.816;9.278;2023-12-14T22:14:21;12.07;;;6.47;;
20344;SDS011;10330;48.816;9.278;2023-12-14T22:16:48;12.40;;;5.93;;
20344;SDS011;10330;48.816;9.278;2023-12-14T22:19:16;11.38;;;5.30;;
20344;SDS011;10330;48.816;9.278;2023-12-14T22:21:43;13.82;;;7.15;;
20344;SDS011;10330;48.816;9.278;2023-12-14T22:24:09;14.38;;;7.22;;
20344;SDS011;10330;48.816;9.278;2023-12-14T22:26:36;13.05;;;7.18;;
20344;SDS011;10330;48.816;9.278;2023-12-14T22:29:02;18.08;;;8.25;;
20344;SDS011;10330;48.816;9.278;2023-12-14T22:31:29;16.50;;;7.40;;
20344;SDS011;10330;48.816;9.278;2023-12-14T22:33:55;19.45;;;9.25;;
20344;SDS011;10330;48.816;9.278;2023-12-14T22:36:22;15.20;;;7.10;;
20344;SDS011;10330;48.816;9.278;2023-12-14T22:38:48;20.40;;;8.38;;
20344;SDS011;10330;48.816;9.278;2023-12-14T22:41:20;12.70;;;6.60;;
20344;SDS011;10330;48.816;9.278;2023-12-14T22:43:47;15.77;;;6.32;;
20344;SDS011;10330;48.816;9.278;2023-12-14T22:46:13;12.38;;;6.80;;
20344;SDS011;10330;48.816;9.278;2023-12-14T22:48:46;12.07;;;6.95;;
20344;SDS011;10330;48.816;9.278;2023-12-14T22:51:19;15.23;;;7.68;;
20344;SDS011;10330;48.816;9.278;2023-12-14T22:53:48;19.65;;;7.75;;
20344;SDS011;10330;48.816;9.278;2023-12-14T22:56:21;11.38;;;5.95;;
20344;SDS011;10330;48.816;9.278;2023-12-14T22:58:56;14.43;;;6.10;;
20344;SDS011;10330;48.816;9.278;2023-12-14T23:01:33;14.90;;;7.20;;
20344;SDS011;10330;48.816;9.278;2023-12-14T23:04:03;18.20;;;7.32;;
20344;SDS011;10330;48.816;9.278;2023-12-14T23:06:30;16.23;;;7.70;;
20344;SDS011;10330;48.816;9.278;2023-12-14T23:09:08;12.48;;;6.57;;
20344;SDS011;10330;48.816;9.278;2023-12-14T23:11:41;12.05;;;6.47;;
20344;SDS011;10330;48.816;9.278;2023-12-14T23:14:12;13.27;;;6.30;;
20344;SDS011;10330;48.816;9.278;2023-12-14T23:16:42;14.32;;;6.43;;
20344;SDS011;10330;48.816;9.278;2023-12-14T23:19:11;14.45;;;6.72;;
20344;SDS011;10330;48.816;9.278;2023-12-14T23:21:46;9.00;;;5.45;;
20344;SDS011;10330;48.816;9.278;2023-12-14T23:24:17;13.32;;;5.90;;
20344;SDS011;10330;48.816;9.278;2023-12-14T23:26:45;11.77;;;6.28;;
20344;SDS011;10330;48.816;9.278;2023-12-14T23:29:12;13.15;;;7.20;;
20344;SDS011;10330;48.816;9.278;2023-12-14T23:31:44;9.77;;;5.93;;
20344;SDS011;10330;48.816;9.278;2023-12-14T23:34:23;9.35;;;5.72;;
20344;SDS011;10330;48.816;9.278;2023-12-14T23:36:49;10.75;;;6.38;;
20344;SDS011;10330;48.816;9.278;2023-12-14T23:39:21;9.15;;;6.07;;
20344;SDS011;10330;48.816;9.278;2023-12-14T23:42:04;10.00;;;5.38;;
20344;SDS011;10330;48.816;9.278;2023-12-14T23:44:31;11.48;;;6.20;;
20344;SDS011;10330;48.816;9.278;2023-12-14T23:47:01;13.57;;;6.65;;
20344;SDS011;10330;48.816;9.278;2023-12-14T23:49:27;12.40;;;6.68;;
20344;SDS011;10330;48.816;9.278;2023-12-14T23:51:53;10.15;;;5.53;;
20344;SDS011;10330;48.816;9.278;2023-12-14T23:54:20;11.63;;;5.95;;